Time;durP1;ratioP1;P1;durP2;ratioP2;P2;SDS_P1;SDS_P2;PMS_P1;PMS_P2;Temp;Humidity;BMP_temperature;BMP_pressure;BME280_temperature;BME280_humidity;BME280_pressure;Samples;Min_cycle;Max_cycle;Signal;HPM_P1;HPM_P2
2021/11/10 00:01:52;;;;;;;16.63;11.63;;;3.10;99.90;;;;;;4998122;28;20022;-78
2021/11/10 00:04:21;;;;;;;29.58;14.25;;;3.10;99.90;;;;;;4974056;28;20105;-78
2021/11/10 00:06:47;;;;;;;25.05;13.70;;;3.10;99.90;;;;;;4989495;28;20043;-78
2021/11/10 00:09:13;;;;;;;18.10;12.45;;;3.10;99.90;;;;;;5001363;28;20053;-77
2021/11/10 00:11:39;;;;;;;17.83;11.70;;;3.10;99.90;;;;;;4998392;28;20138;-76
2021/11/10 00:14:05;;;;;;;13.23;10.02;;;3.00;99.90;;;;;;5003710;28;20108;-77
2021/11/10 00:16:30;;;;;;;15.23;10.27;;;3.00;99.90;;;;;;4998032;28;20034;-78
2021/11/10 00:18:56;;;;;;;15.23;11.30;;;2.90;99.90;;;;;;4999143;28;20441;-77
2021/11/10 00:21:24;;;;;;;17.70;11.18;;;3.00;99.90;;;;;;4996089;28;20023;-78
2021/11/10 00:23:50;;;;;;;20.02;12.20;;;2.90;99.90;;;;;;5006255;28;20105;-77
2021/11/10 00:26:16;;;;;;;18.30;10.85;;;2.90;99.90;;;;;;4992621;28;20557;-77
2021/11/10 00:28:41;;;;;;;13.90;9.98;;;2.90;99.90;;;;;;5002564;28;20103;-76
2021/11/10 00:31:07;;;;;;;19.15;9.52;;;2.90;99.90;;;;;;4988650;28;20114;-77
2021/11/10 00:33:33;;;;;;;14.27;9.77;;;2.90;99.90;;;;;;4990442;28;20038;-77
2021/11/10 00:35:59;;;;;;;13.27;9.73;;;2.90;99.90;;;;;;4999823;28;20030;-77
2021/11/10 00:38:25;;;;;;;17.67;10.25;;;2.90;99.90;;;;;;4992700;28;20129;-76
2021/11/10 00:40:51;;;;;;;15.07;9.65;;;2.80;99.90;;;;;;4991149;28;20054;-77
2021/11/10 00:43:17;;;;;;;14.43;10.50;;;2.90;99.90;;;;;;4995404;28;20022;-77
2021/11/10 00:45:43;;;;;;;15.93;9.95;;;2.90;99.90;;;;;;4997876;28;20053;-76
2021/11/10 00:48:10;;;;;;;14.20;10.43;;;2.90;99.90;;;;;;4997761;28;20031;-77
2021/11/10 00:50:37;;;;;;;13.45;9.23;;;2.80;99.90;;;;;;4994087;28;20026;-76
2021/11/10 00:53:03;;;;;;;15.27;10.00;;;2.90;99.90;;;;;;4998058;28;20072;-76
2021/11/10 00:55:29;;;;;;;14.23;9.98;;;2.90;99.90;;;;;;4991429;28;20121;-76
2021/11/10 00:57:55;;;;;;;15.88;10.18;;;2.80;99.90;;;;;;4993507;28;20474;-77
2021/11/10 01:00:22;;;;;;;17.55;11.70;;;2.80;99.90;;;;;;4987112;28;20031;-79
2021/11/10 01:02:48;;;;;;;17.48;10.48;;;2.80;99.90;;;;;;4994716;28;20489;-77
2021/11/10 01:05:14;;;;;;;16.50;11.32;;;2.80;99.90;;;;;;4991172;28;20030;-76
2021/11/10 01:07:40;;;;;;;15.15;11.88;;;2.80;99.90;;;;;;5001073;28;20027;-78
2021/11/10 01:10:07;;;;;;;19.08;10.70;;;2.80;99.90;;;;;;4995519;28;20117;-77
2021/11/10 01:12:33;;;;;;;15.50;9.63;;;2.70;99.90;;;;;;4990556;28;20143;-78
2021/11/10 01:14:59;;;;;;;14.88;10.55;;;2.80;99.90;;;;;;4984885;28;20045;-77
2021/11/10 01:17:25;;;;;;;20.73;12.38;;;2.70;99.90;;;;;;4998719;28;20037;-78
2021/11/10 01:19:51;;;;;;;19.08;11.50;;;2.70;99.90;;;;;;4997910;28;20453;-77
2021/11/10 01:22:17;;;;;;;15.77;10.77;;;2.70;99.90;;;;;;4998731;28;20023;-76
2021/11/10 01:24:43;;;;;;;14.43;10.93;;;2.70;99.90;;;;;;4991747;28;20019;-77
2021/11/10 01:27:09;;;;;;;14.20;9.55;;;2.70;99.90;;;;;;4995781;28;20034;-78
2021/11/10 01:29:35;;;;;;;15.30;11.15;;;2.60;99.90;;;;;;4996466;28;20101;-78
2021/11/10 01:32:01;;;;;;;14.23;11.10;;;2.70;99.90;;;;;;4995416;28;20556;-77
2021/11/10 01:34:27;;;;;;;14.45;11.27;;;2.60;99.90;;;;;;4993219;28;20089;-77
2021/11/10 01:36:52;;;;;;;14.00;10.50;;;2.60;99.90;;;;;;4993605;28;20124;-78
2021/11/10 01:39:18;;;;;;;12.98;9.13;;;2.70;99.90;;;;;;4995846;28;20409;-78
2021/11/10 01:41:47;;;;;;;16.65;11.88;;;2.60;99.90;;;;;;5001281;28;20433;-76
2021/11/10 01:44:18;;;;;;;17.55;10.70;;;2.60;99.90;;;;;;4996216;28;20041;-77
2021/11/10 01:46:44;;;;;;;15.38;11.02;;;2.60;99.90;;;;;;4998753;28;20022;-76
2021/11/10 01:49:10;;;;;;;20.58;11.25;;;2.60;99.90;;;;;;4994579;28;20026;-76
2021/11/10 01:51:50;;;;;;;15.02;10.45;;;2.50;99.90;;;;;;4997083;28;20034;-76
2021/11/10 01:54:18;;;;;;;19.63;11.32;;;2.60;99.90;;;;;;4995627;28;20034;-76
2021/11/10 01:56:44;;;;;;;15.18;11.00;;;2.50;99.90;;;;;;4993538;28;20038;-76
2021/11/10 01:59:11;;;;;;;14.93;10.77;;;2.50;99.90;;;;;;4998059;28;20433;-76
2021/11/10 02:01:45;;;;;;;19.13;11.63;;;2.40;99.90;;;;;;4988626;28;20027;-77
2021/11/10 02:04:11;;;;;;;16.02;11.38;;;2.50;99.90;;;;;;4997926;28;20037;-76
2021/11/10 02:06:38;;;;;;;15.98;12.60;;;2.50;99.90;;;;;;4995323;28;20033;-76
2021/11/10 02:09:05;;;;;;;16.90;11.55;;;2.60;99.90;;;;;;4995061;28;20507;-76
2021/11/10 02:11:32;;;;;;;16.70;11.18;;;2.70;99.90;;;;;;4999683;28;20121;-76
2021/11/10 02:13:59;;;;;;;16.58;13.07;;;2.90;99.90;;;;;;4997316;28;20038;-76
2021/11/10 02:16:25;;;;;;;15.07;11.23;;;2.80;99.90;;;;;;4994854;28;20085;-76
2021/11/10 02:18:51;;;;;;;21.83;13.48;;;2.80;99.90;;;;;;4991183;28;20034;-77
2021/11/10 02:21:17;;;;;;;17.02;10.57;;;2.70;99.90;;;;;;4998590;28;20030;-77
2021/11/10 02:23:43;;;;;;;15.80;10.38;;;2.60;99.90;;;;;;4996404;28;22049;-77
2021/11/10 02:26:22;;;;;;;16.20;11.75;;;2.50;99.90;;;;;;4997603;28;20034;-76
2021/11/10 02:28:49;;;;;;;17.15;12.60;;;2.40;99.90;;;;;;4995274;28;20026;-76
2021/11/10 02:31:16;;;;;;;20.10;11.95;;;2.40;99.90;;;;;;5006374;28;20023;-76
2021/11/10 02:33:43;;;;;;;13.93;11.75;;;2.30;99.90;;;;;;5012965;28;20095;-74
2021/11/10 02:36:08;;;;;;;16.27;11.95;;;2.20;99.90;;;;;;5019521;28;20032;-76
2021/11/10 02:38:34;;;;;;;20.13;12.30;;;2.30;99.90;;;;;;5011571;28;20066;-75
2021/11/10 02:41:01;;;;;;;20.00;13.23;;;2.30;99.90;;;;;;5005982;28;20050;-77
2021/11/10 02:43:28;;;;;;;19.02;12.60;;;2.30;99.90;;;;;;5002339;28;20038;-77
2021/11/10 02:45:55;;;;;;;20.17;12.60;;;2.30;99.90;;;;;;5002338;28;20078;-76
2021/11/10 02:48:21;;;;;;;18.17;11.27;;;2.20;99.90;;;;;;5006123;28;20026;-75
2021/11/10 02:50:48;;;;;;;16.40;12.13;;;2.20;99.90;;;;;;4995603;28;20018;-76
2021/11/10 02:53:14;;;;;;;17.70;12.13;;;2.20;99.90;;;;;;5001317;28;20438;-76
2021/11/10 02:55:40;;;;;;;17.98;12.13;;;2.10;99.90;;;;;;4997272;28;20068;-76
2021/11/10 02:58:06;;;;;;;19.08;11.93;;;2.20;99.90;;;;;;4996363;28;20101;-76
2021/11/10 03:00:32;;;;;;;18.33;12.32;;;2.10;99.90;;;;;;4996811;28;20038;-77
2021/11/10 03:02:59;;;;;;;20.42;13.27;;;2.20;99.90;;;;;;5000663;28;20437;-76
2021/11/10 03:05:26;;;;;;;22.50;13.77;;;2.10;99.90;;;;;;5001528;28;20037;-77
2021/11/10 03:07:52;;;;;;;18.40;11.57;;;2.10;99.90;;;;;;5000012;28;20371;-77
2021/11/10 03:10:18;;;;;;;16.70;11.75;;;2.10;99.90;;;;;;4999442;28;20037;-77
2021/11/10 03:12:44;;;;;;;18.67;12.57;;;2.10;99.90;;;;;;4999070;28;20165;-76
2021/11/10 03:15:10;;;;;;;17.92;10.95;;;2.10;99.90;;;;;;4996944;28;20133;-77
2021/11/10 03:17:37;;;;;;;16.33;11.35;;;2.10;99.90;;;;;;4998882;28;20037;-77
2021/11/10 03:20:07;;;;;;;19.00;12.75;;;2.10;99.90;;;;;;4997772;28;20026;-76
2021/11/10 03:22:33;;;;;;;22.77;12.02;;;2.10;99.90;;;;;;4997262;28;20433;-76
2021/11/10 03:25:01;;;;;;;18.63;12.32;;;2.10;99.90;;;;;;4998045;28;20057;-77
2021/11/10 03:27:27;;;;;;;20.90;13.45;;;2.00;99.90;;;;;;5001597;28;20022;-77
2021/11/10 03:29:54;;;;;;;14.30;11.95;;;2.20;99.90;;;;;;5003224;28;20041;-76
2021/11/10 03:32:21;;;;;;;16.60;12.45;;;2.40;99.90;;;;;;5010212;28;20015;-75
2021/11/10 03:34:50;;;;;;;15.55;11.50;;;2.40;99.90;;;;;;5002064;28;20041;-75
2021/11/10 03:37:16;;;;;;;19.92;11.80;;;2.30;99.90;;;;;;4995348;28;20030;-77
2021/11/10 03:39:42;;;;;;;20.17;12.52;;;2.20;99.90;;;;;;5002337;28;20034;-76
2021/11/10 03:42:08;;;;;;;17.50;12.90;;;2.10;99.90;;;;;;5000827;28;20405;-76
2021/11/10 03:44:34;;;;;;;20.00;12.90;;;2.10;99.90;;;;;;4989649;28;20030;-75
2021/11/10 03:46:59;;;;;;;26.98;14.05;;;2.00;99.90;;;;;;4992004;28;20031;-76
2021/11/10 03:49:25;;;;;;;21.35;13.18;;;2.00;99.90;;;;;;4992899;28;20085;-77
2021/11/10 03:51:52;;;;;;;18.23;13.07;;;2.10;99.90;;;;;;4992762;28;20037;-77
2021/11/10 03:54:18;;;;;;;20.75;12.85;;;2.10;99.90;;;;;;4989192;28;20042;-76
2021/11/10 03:56:45;;;;;;;20.77;12.55;;;2.10;99.90;;;;;;4995384;28;20036;-77
2021/11/10 03:59:11;;;;;;;17.67;12.32;;;2.00;99.90;;;;;;4990464;28;20026;-76
2021/11/10 04:01:37;;;;;;;23.67;12.80;;;2.00;99.90;;;;;;4985179;28;20026;-77
2021/11/10 04:04:03;;;;;;;16.63;12.18;;;2.00;99.90;;;;;;4992194;28;20075;-76
2021/11/10 04:06:29;;;;;;;17.27;12.48;;;2.00;99.90;;;;;;4992554;28;20382;-76
2021/11/10 04:08:55;;;;;;;20.27;13.18;;;2.00;99.90;;;;;;4995293;28;20520;-76
2021/11/10 04:11:21;;;;;;;28.33;13.68;;;2.00;99.90;;;;;;4994955;28;20030;-76
2021/11/10 04:13:47;;;;;;;27.90;14.77;;;1.90;99.90;;;;;;4997690;28;20057;-76
2021/11/10 04:16:13;;;;;;;17.92;12.95;;;1.90;99.90;;;;;;5000324;28;20022;-77
2021/11/10 04:18:39;;;;;;;26.35;14.77;;;2.00;99.90;;;;;;4999559;28;20030;-77
2021/11/10 04:21:05;;;;;;;18.45;12.80;;;1.90;99.90;;;;;;4995681;28;20037;-76
2021/11/10 04:23:32;;;;;;;18.75;12.73;;;1.90;99.90;;;;;;4998589;28;20019;-76
2021/11/10 04:26:03;;;;;;;20.95;13.00;;;1.90;99.90;;;;;;4994104;28;20172;-76
2021/11/10 04:28:28;;;;;;;;;;;1.90;99.90;;;;;;4995509;28;20054;-76
2021/11/10 04:30:55;;;;;;;20.67;12.52;;;1.80;99.90;;;;;;4998517;28;19937;-75
2021/11/10 04:33:21;;;;;;;22.30;12.57;;;1.80;99.90;;;;;;4996282;28;20030;-76
2021/11/10 04:35:48;;;;;;;23.55;13.70;;;1.80;99.90;;;;;;5012616;28;20411;-76
2021/11/10 04:38:15;;;;;;;19.00;12.57;;;1.80;99.90;;;;;;4998327;28;20030;-76
2021/11/10 04:40:41;;;;;;;23.83;13.75;;;1.80;99.90;;;;;;4999662;28;20026;-77
2021/11/10 04:43:07;;;;;;;19.23;12.90;;;1.80;99.90;;;;;;4990894;28;20023;-76
2021/11/10 04:45:35;;;;;;;21.58;15.25;;;1.80;99.90;;;;;;4997883;28;20030;-76
2021/11/10 04:48:02;;;;;;;19.00;14.13;;;1.80;99.90;;;;;;4998390;28;20030;-77
2021/11/10 04:50:28;;;;;;;22.95;14.60;;;1.80;99.90;;;;;;4999678;28;20037;-76
2021/11/10 04:52:53;;;;;;;20.73;14.50;;;1.70;99.90;;;;;;4993671;28;20023;-76
2021/11/10 04:55:19;;;;;;;21.90;14.75;;;1.70;99.90;;;;;;4992888;28;20450;-76
2021/11/10 04:57:45;;;;;;;18.25;13.30;;;1.70;99.90;;;;;;4996227;28;20077;-77
2021/11/10 05:00:12;;;;;;;22.80;14.02;;;1.70;99.90;;;;;;4997861;28;20034;-77
2021/11/10 05:02:38;;;;;;;21.20;14.35;;;1.70;99.90;;;;;;4994772;28;20084;-76
2021/11/10 05:05:05;;;;;;;21.17;13.93;;;1.70;99.90;;;;;;4997729;28;20022;-76
2021/11/10 05:07:31;;;;;;;22.08;14.70;;;1.70;99.90;;;;;;4996112;28;20037;-75
2021/11/10 05:09:56;;;;;;;19.58;14.18;;;1.70;99.90;;;;;;4993434;28;20022;-77
2021/11/10 05:12:22;;;;;;;19.85;14.45;;;1.80;99.90;;;;;;5045042;23;20046;-77
2021/11/10 05:14:52;;;;;;;25.90;16.02;;;1.80;99.90;;;;;;5002756;28;20018;-76
2021/11/10 05:17:18;;;;;;;19.65;13.77;;;1.80;99.90;;;;;;5009298;28;20029;-77
2021/11/10 05:19:44;;;;;;;22.98;15.10;;;1.80;99.90;;;;;;5010830;28;20548;-78
2021/11/10 05:22:09;;;;;;;24.73;13.80;;;1.80;99.90;;;;;;5012798;28;20026;-78
2021/11/10 05:24:35;;;;;;;22.30;14.70;;;1.70;99.90;;;;;;5009266;28;20026;-77
2021/11/10 05:27:01;;;;;;;22.90;14.98;;;1.80;99.90;;;;;;5010577;28;20405;-77
2021/11/10 05:29:26;;;;;;;24.58;15.32;;;1.70;99.90;;;;;;5012504;28;20030;-77
2021/11/10 05:31:52;;;;;;;19.00;14.82;;;1.70;99.90;;;;;;5014591;28;20107;-77
2021/11/10 05:34:17;;;;;;;19.67;14.65;;;1.70;99.90;;;;;;5010733;28;20076;-76
2021/11/10 05:36:43;;;;;;;24.15;14.10;;;1.70;99.90;;;;;;5009999;28;20033;-77
2021/11/10 05:39:09;;;;;;;21.33;14.80;;;1.70;99.90;;;;;;5008152;28;20571;-77
2021/11/10 05:41:35;;;;;;;18.80;13.27;;;1.60;99.90;;;;;;5018101;28;20058;-77
2021/11/10 05:44:01;;;;;;;23.63;14.60;;;1.60;99.90;;;;;;5018494;28;20081;-77
2021/11/10 05:46:27;;;;;;;24.63;15.60;;;1.60;99.90;;;;;;5008461;28;20069;-77
2021/11/10 05:48:53;;;;;;;27.17;16.70;;;1.60;99.90;;;;;;5009637;28;20378;-76
2021/11/10 05:51:19;;;;;;;23.42;15.73;;;1.60;99.90;;;;;;5026461;28;20452;-76
2021/11/10 05:53:45;;;;;;;25.30;16.45;;;1.70;99.90;;;;;;5025105;28;20481;-77
2021/11/10 05:56:22;;;;;;;26.38;15.07;;;1.70;99.90;;;;;;5021117;28;20033;-77
2021/11/10 05:58:49;;;;;;;31.02;15.65;;;1.60;99.90;;;;;;5016498;28;20041;-76
2021/11/10 06:01:15;;;;;;;22.42;16.92;;;1.60;99.90;;;;;;5031536;28;20002;-76
2021/11/10 06:03:42;;;;;;;25.08;16.75;;;1.60;99.90;;;;;;5018780;28;20099;-76
2021/11/10 06:06:07;;;;;;;28.13;16.83;;;1.60;99.90;;;;;;5016998;28;20022;-77
2021/11/10 06:08:37;;;;;;;23.83;16.13;;;1.60;99.90;;;;;;5020064;28;20037;-77
2021/11/10 06:11:12;;;;;;;26.92;15.45;;;1.60;99.90;;;;;;5018555;28;20110;-77
2021/11/10 06:13:39;;;;;;;28.98;15.85;;;1.60;99.90;;;;;;5019958;28;20084;-77
2021/11/10 06:16:06;;;;;;;35.85;17.42;;;1.60;99.90;;;;;;5018930;28;20036;-77
2021/11/10 06:18:33;;;;;;;29.85;15.82;;;1.60;99.90;;;;;;5011475;28;20113;-77
2021/11/10 06:21:00;;;;;;;26.42;17.65;;;1.60;99.90;;;;;;5019765;28;20037;-77
2021/11/10 06:23:26;;;;;;;26.60;16.40;;;1.60;99.90;;;;;;5022036;28;20199;-77
2021/11/10 06:25:52;;;;;;;21.23;15.65;;;1.70;99.90;;;;;;5018897;28;20022;-77
2021/11/10 06:28:17;;;;;;;28.45;16.35;;;1.60;99.90;;;;;;5010575;28;20153;-77
2021/11/10 06:30:43;;;;;;;23.98;15.05;;;1.60;99.90;;;;;;5015292;28;21846;-77
2021/11/10 06:33:08;;;;;;;38.03;19.10;;;1.60;99.90;;;;;;5017073;28;20026;-77
2021/11/10 06:35:34;;;;;;;27.23;16.15;;;1.60;99.90;;;;;;5018037;28;20046;-77
2021/11/10 06:38:00;;;;;;;22.58;16.15;;;1.70;99.90;;;;;;5013393;28;20080;-78
2021/11/10 06:40:26;;;;;;;21.70;14.05;;;1.80;99.90;;;;;;5017752;28;20063;-77
2021/11/10 06:42:52;;;;;;;22.70;13.57;;;1.80;99.90;;;;;;5015528;28;20455;-77
2021/11/10 06:45:18;;;;;;;24.27;14.23;;;1.90;99.90;;;;;;5017490;28;20022;-77
2021/11/10 06:47:44;;;;;;;24.00;14.10;;;2.00;99.90;;;;;;5015406;28;20041;-77
2021/11/10 06:50:11;;;;;;;29.38;15.75;;;2.00;99.90;;;;;;4997947;28;20033;-76
2021/11/10 06:52:37;;;;;;;20.33;14.07;;;2.00;99.90;;;;;;5011776;28;20409;-77
2021/11/10 06:55:03;;;;;;;23.67;14.18;;;2.20;99.90;;;;;;5012921;28;20030;-77
2021/11/10 06:57:30;;;;;;;20.00;13.38;;;2.20;99.90;;;;;;5016377;28;20134;-77
2021/11/10 06:59:56;;;;;;;25.40;15.32;;;2.30;99.90;;;;;;5015670;28;20030;-77
2021/11/10 07:02:22;;;;;;;18.52;14.32;;;2.30;99.90;;;;;;5014539;28;20436;-79
2021/11/10 07:04:47;;;;;;;24.27;13.90;;;2.40;99.90;;;;;;5015125;28;20026;-77
2021/11/10 07:07:14;;;;;;;19.95;13.80;;;2.40;99.90;;;;;;5016427;28;20059;-78
2021/11/10 07:09:39;;;;;;;18.73;13.63;;;2.40;99.90;;;;;;5015243;28;20059;-77
2021/11/10 07:12:05;;;;;;;22.38;13.35;;;2.30;99.90;;;;;;5011250;28;20030;-76
2021/11/10 07:14:31;;;;;;;21.00;13.45;;;2.30;99.90;;;;;;5012330;28;20057;-77
2021/11/10 07:16:57;;;;;;;23.35;12.65;;;2.40;99.90;;;;;;5009909;28;20079;-77
2021/11/10 07:19:22;;;;;;;21.35;12.77;;;2.60;99.90;;;;;;5007293;28;20086;-76
2021/11/10 07:21:48;;;;;;;23.55;13.77;;;2.80;99.90;;;;;;5012422;28;20069;-76
2021/11/10 07:24:14;;;;;;;18.98;13.60;;;2.70;99.90;;;;;;5011819;28;20034;-78
2021/11/10 07:26:40;;;;;;;19.90;14.05;;;2.80;99.90;;;;;;5013622;28;20021;-76
2021/11/10 07:29:06;;;;;;;20.27;12.95;;;2.80;99.90;;;;;;5012601;28;20366;-77
2021/11/10 07:31:33;;;;;;;16.77;12.15;;;2.90;99.90;;;;;;5010123;28;20108;-76
2021/11/10 07:33:59;;;;;;;23.20;13.15;;;2.90;99.90;;;;;;5015918;28;20231;-77
2021/11/10 07:36:29;;;;;;;20.88;13.05;;;3.00;99.90;;;;;;5018329;28;20053;-77
2021/11/10 07:38:55;;;;;;;20.50;13.82;;;3.00;99.90;;;;;;5007578;28;20434;-76
2021/11/10 07:41:23;;;;;;;22.25;13.20;;;3.10;99.90;;;;;;5012959;28;20027;-77
2021/11/10 07:43:52;;;;;;;23.35;13.95;;;3.20;99.90;;;;;;5007996;28;20033;-77
2021/11/10 07:46:19;;;;;;;23.90;12.52;;;3.30;99.90;;;;;;5013058;28;20022;-78
2021/11/10 07:48:47;;;;;;;20.67;12.68;;;3.30;99.90;;;;;;5007385;28;20117;-77
2021/11/10 07:51:13;;;;;;;16.15;12.75;;;3.30;99.90;;;;;;5018021;28;20045;-77
2021/11/10 07:53:40;;;;;;;23.27;13.93;;;3.50;99.90;;;;;;5007755;28;20516;-76
2021/11/10 07:56:06;;;;;;;19.83;13.25;;;3.70;99.90;;;;;;5014934;28;20439;-77
2021/11/10 07:58:33;;;;;;;18.80;13.40;;;3.90;99.90;;;;;;5014127;28;20452;-76
2021/11/10 08:00:58;;;;;;;17.73;14.15;;;3.80;99.90;;;;;;5015669;28;20021;-77
2021/11/10 08:03:24;;;;;;;17.77;13.45;;;3.90;99.90;;;;;;5012916;28;20270;-76
2021/11/10 08:05:49;;;;;;;19.65;13.40;;;4.00;99.90;;;;;;5025165;28;20564;-76
2021/11/10 08:08:15;;;;;;;18.75;12.98;;;4.00;99.90;;;;;;5013622;28;20570;-78
2021/11/10 08:10:43;;;;;;;18.02;14.23;;;4.00;99.90;;;;;;5006965;28;20043;-77
2021/11/10 08:13:08;;;;;;;17.70;13.15;;;4.10;99.90;;;;;;5007482;28;20462;-77
2021/11/10 08:15:36;;;;;;;18.73;12.80;;;4.10;99.90;;;;;;5013544;28;20041;-76
2021/11/10 08:18:02;;;;;;;18.67;12.52;;;4.30;99.90;;;;;;5007273;28;20031;-77
2021/11/10 08:20:28;;;;;;;15.65;12.20;;;4.50;99.90;;;;;;5009800;28;20030;-75
2021/11/10 08:22:53;;;;;;;17.38;12.32;;;4.80;99.90;;;;;;5005680;28;20037;-75
2021/11/10 08:25:19;;;;;;;16.98;12.68;;;4.90;99.90;;;;;;5011717;28;20548;-76
2021/11/10 08:27:46;;;;;;;19.17;12.13;;;4.80;99.90;;;;;;5012712;28;20014;-76
2021/11/10 08:30:20;;;;;;;19.60;13.82;;;4.80;99.90;;;;;;5010091;28;20052;-76
2021/11/10 08:32:47;;;;;;;18.58;13.77;;;4.80;99.90;;;;;;4999486;28;20069;-76
2021/11/10 08:35:13;;;;;;;21.70;12.60;;;4.80;99.90;;;;;;5012302;28;20025;-75
2021/11/10 08:37:39;;;;;;;16.42;12.40;;;4.70;99.90;;;;;;5005863;28;20026;-77
2021/11/10 08:40:09;;;;;;;19.30;13.57;;;5.00;99.90;;;;;;5014614;28;20037;-75
2021/11/10 08:42:37;;;;;;;23.80;14.23;;;5.10;99.90;;;;;;5012550;28;20473;-76
2021/11/10 08:45:09;;;;;;;21.33;13.38;;;5.20;99.90;;;;;;5013563;28;20030;-76
2021/11/10 08:47:36;;;;;;;19.08;13.68;;;5.30;99.90;;;;;;5009720;28;20022;-77
2021/11/10 08:50:05;;;;;;;26.60;14.48;;;5.30;99.90;;;;;;5016598;28;20085;-78
2021/11/10 08:52:30;;;;;;;23.38;14.15;;;5.40;99.90;;;;;;5013705;28;20026;-78
2021/11/10 08:54:56;;;;;;;28.25;14.60;;;5.30;99.90;;;;;;5010737;28;20026;-78
2021/11/10 08:57:22;;;;;;;20.95;14.40;;;5.10;99.90;;;;;;5021996;28;20028;-77
2021/11/10 08:59:48;;;;;;;17.35;13.48;;;5.50;99.90;;;;;;5021246;28;20034;-77
2021/11/10 09:02:13;;;;;;;19.35;14.32;;;5.50;99.90;;;;;;5028496;28;20286;-77
2021/11/10 09:04:39;;;;;;;16.73;13.93;;;5.60;99.90;;;;;;5026525;28;20036;-77
2021/11/10 09:07:05;;;;;;;17.35;13.05;;;5.60;99.90;;;;;;5027844;28;20018;-76
2021/11/10 09:09:31;;;;;;;18.58;14.07;;;5.60;99.90;;;;;;5023611;28;20111;-76
2021/11/10 09:11:57;;;;;;;20.92;14.73;;;5.60;99.90;;;;;;5024566;28;20437;-77
2021/11/10 09:14:23;;;;;;;17.83;13.73;;;5.50;99.90;;;;;;5021576;28;20125;-77
2021/11/10 09:16:49;;;;;;;22.02;14.57;;;5.50;99.90;;;;;;5015565;28;20057;-77
2021/11/10 09:19:15;;;;;;;21.73;14.50;;;5.50;99.90;;;;;;5021705;28;20086;-76
2021/11/10 09:21:41;;;;;;;18.08;13.93;;;5.40;99.90;;;;;;5016086;28;20023;-77
2021/11/10 09:24:07;;;;;;;18.70;13.65;;;5.50;99.90;;;;;;5022693;28;20082;-77
2021/11/10 09:26:33;;;;;;;21.65;14.02;;;5.50;99.90;;;;;;5016929;28;20026;-76
2021/11/10 09:28:59;;;;;;;21.52;13.68;;;5.60;99.90;;;;;;5022398;28;20033;-76
2021/11/10 09:31:25;;;;;;;27.10;15.15;;;5.70;99.90;;;;;;5022168;28;20061;-76
2021/11/10 09:33:57;;;;;;;20.55;14.30;;;5.90;99.90;;;;;;5020056;28;20131;-76
2021/11/10 09:36:23;;;;;;;21.30;13.77;;;5.90;99.90;;;;;;5016850;28;20030;-78
2021/11/10 09:38:49;;;;;;;20.67;15.10;;;6.00;99.90;;;;;;5016503;28;20034;-79
2021/11/10 09:41:15;;;;;;;20.27;14.88;;;6.10;99.90;;;;;;5017746;28;20026;-77
2021/11/10 09:43:42;;;;;;;19.48;13.77;;;6.30;99.90;;;;;;5011212;28;20029;-77
2021/11/10 09:46:09;;;;;;;21.90;14.45;;;6.40;99.90;;;;;;5015535;28;20109;-81
2021/11/10 09:48:35;;;;;;;20.88;14.32;;;6.30;99.90;;;;;;5026352;28;20026;-77
2021/11/10 09:51:03;;;;;;;20.08;14.88;;;6.00;99.90;;;;;;5021588;28;20022;-78
2021/11/10 09:53:29;;;;;;;19.10;14.50;;;6.20;99.90;;;;;;5016625;28;20053;-79
2021/11/10 09:55:55;;;;;;;26.17;16.23;;;6.60;99.90;;;;;;5017682;28;20042;-77
2021/11/10 09:58:23;;;;;;;28.67;15.75;;;6.60;99.90;;;;;;5028662;28;20026;-78
2021/11/10 10:00:53;;;;;;;23.15;16.02;;;6.70;99.90;;;;;;5019977;28;20104;-77
2021/11/10 10:03:19;;;;;;;24.63;15.98;;;6.70;99.90;;;;;;5026502;28;20018;-77
2021/11/10 10:05:46;;;;;;;18.67;14.48;;;6.80;99.90;;;;;;5029148;28;20096;-77
2021/11/10 10:08:13;;;;;;;21.65;15.27;;;6.80;99.90;;;;;;5029738;28;20014;-78
2021/11/10 10:10:40;;;;;;;22.60;15.68;;;6.80;99.90;;;;;;5027893;28;20098;-78
2021/11/10 10:13:06;;;;;;;20.88;15.75;;;6.70;99.90;;;;;;5033305;28;20049;-78
2021/11/10 10:15:35;;;;;;;22.10;17.23;;;6.70;99.90;;;;;;5045531;28;20048;-77
2021/11/10 10:18:02;;;;;;;17.85;15.57;;;6.80;99.90;;;;;;5037979;28;20053;-76
2021/11/10 10:20:36;;;;;;;23.42;15.50;;;6.90;99.90;;;;;;5027984;28;20125;-76
2021/11/10 10:23:07;;;;;;;22.08;15.55;;;7.00;99.90;;;;;;5035229;28;20034;-76
2021/11/10 10:25:41;;;;;;;31.15;16.10;;;7.10;99.90;;;;;;5027921;28;20026;-78
2021/11/10 10:28:09;;;;;;;25.23;16.52;;;6.80;99.90;;;;;;5029605;28;20030;-76
2021/11/10 10:30:43;;;;;;;30.52;17.80;;;6.90;99.90;;;;;;5036382;28;20069;-80
2021/11/10 10:33:14;;;;;;;28.80;17.27;;;6.80;99.90;;;;;;5035434;28;20057;-80
2021/11/10 10:35:52;;;;;;;26.60;16.05;;;7.10;99.90;;;;;;5034676;28;20010;-78
2021/11/10 10:38:22;;;;;;;24.15;16.67;;;7.10;99.90;;;;;;5034258;28;20014;-79
2021/11/10 10:40:50;;;;;;;28.02;16.98;;;7.20;99.90;;;;;;5024215;28;20034;-77
2021/11/10 10:43:17;;;;;;;24.70;16.30;;;7.20;99.90;;;;;;5026540;28;20033;-81
2021/11/10 10:45:48;;;;;;;27.73;15.80;;;7.30;99.90;;;;;;5026110;28;20022;-80
2021/11/10 10:48:17;;;;;;;21.50;14.32;;;7.40;99.90;;;;;;5021785;28;21128;-78
2021/11/10 10:50:55;;;;;;;20.48;15.70;;;7.80;99.90;;;;;;5021871;28;20164;-80
2021/11/10 10:53:46;;;;;;;20.50;16.85;;;7.80;99.90;;;;;;5019602;28;20026;-78
2021/11/10 10:56:25;;;;;;;22.13;15.45;;;7.80;99.90;;;;;;5021894;28;20053;-79
2021/11/10 10:58:58;;;;;;;25.27;16.67;;;7.90;99.90;;;;;;5017883;28;20029;-79
2021/11/10 11:01:51;;;;;;;25.58;15.32;;;7.90;99.90;;;;;;5025677;28;20052;-78
2021/11/10 11:04:21;;;;;;;22.55;16.98;;;7.60;99.90;;;;;;5022402;28;20018;-78
2021/11/10 11:06:59;;;;;;;23.80;16.83;;;7.50;99.90;;;;;;5016837;28;20057;-78
2021/11/10 11:09:29;;;;;;;26.27;16.10;;;7.70;99.90;;;;;;5024480;28;20038;-79
2021/11/10 11:12:00;;;;;;;25.70;17.20;;;7.70;99.90;;;;;;5032298;23;20053;-77
2021/11/10 11:17:23;;;;;;;32.42;17.67;;;7.90;99.90;;;;;;5007170;28;20499;-78
2021/11/10 11:19:51;;;;;;;26.98;17.67;;;7.80;99.90;;;;;;5010221;28;20042;-79
2021/11/10 11:22:16;;;;;;;33.70;19.63;;;7.70;99.90;;;;;;4998462;28;20027;-79
2021/11/10 11:24:44;;;;;;;29.60;18.35;;;7.90;99.90;;;;;;4998290;28;20031;-79
2021/11/10 11:27:30;;;;;;;24.73;17.60;;;8.20;99.90;;;;;;4993299;28;20022;-79
2021/11/10 11:30:03;;;;;;;26.80;18.27;;;8.20;99.90;;;;;;4995694;28;20026;-79
2021/11/10 11:32:30;;;;;;;26.30;18.20;;;8.20;99.90;;;;;;4996841;28;20094;-79
2021/11/10 11:35:05;;;;;;;29.30;18.48;;;8.60;99.90;;;;;;5001155;28;20026;-78
2021/11/10 11:37:31;;;;;;;25.88;18.63;;;8.50;99.90;;;;;;4991162;28;20057;-78
2021/11/10 11:40:12;;;;;;;23.08;17.75;;;8.80;99.90;;;;;;4990673;28;20026;-78
2021/11/10 11:42:39;;;;;;;27.63;17.83;;;8.60;99.90;;;;;;4985625;28;20110;-79
2021/11/10 11:45:07;;;;;;;24.80;17.70;;;8.60;99.90;;;;;;4992342;28;20026;-79
2021/11/10 11:47:33;;;;;;;24.38;17.02;;;8.60;99.90;;;;;;4993513;28;20022;-78
2021/11/10 11:50:03;;;;;;;35.10;18.30;;;8.70;99.90;;;;;;4992414;28;20048;-78
2021/11/10 11:52:32;;;;;;;27.35;17.52;;;8.50;99.90;;;;;;4988378;28;20030;-79
2021/11/10 11:55:08;;;;;;;26.52;17.55;;;8.60;99.90;;;;;;4991363;28;20046;-79
2021/11/10 11:57:36;;;;;;;26.05;17.27;;;8.70;99.90;;;;;;4990254;28;20165;-78
2021/11/10 12:00:04;;;;;;;24.00;16.55;;;8.70;99.90;;;;;;4986441;28;20034;-79
2021/11/10 12:02:36;;;;;;;25.17;17.92;;;8.80;99.90;;;;;;4997594;28;20113;-79
2021/11/10 12:05:12;;;;;;;22.60;17.42;;;8.70;99.90;;;;;;4990305;28;20478;-79
2021/11/10 12:07:46;;;;;;;30.85;18.92;;;8.60;99.90;;;;;;4994939;28;20030;-78
2021/11/10 12:10:21;;;;;;;24.20;18.17;;;8.30;99.90;;;;;;5001406;28;20022;-78
2021/11/10 12:13:06;;;;;;;25.65;16.77;;;8.50;99.90;;;;;;5004157;28;20038;-79
2021/11/10 12:16:14;;;;;;;33.13;19.00;;;8.60;99.90;;;;;;4993800;28;20521;-78
2021/11/10 12:18:49;;;;;;;27.92;18.77;;;8.70;99.90;;;;;;4993555;28;20111;-78
2021/11/10 12:21:19;;;;;;;27.75;17.83;;;8.70;99.90;;;;;;4988880;28;20018;-78
2021/11/10 12:23:53;;;;;;;27.75;18.70;;;8.70;99.90;;;;;;4990788;28;20153;-78
2021/11/10 12:26:20;;;;;;;27.65;18.10;;;8.90;99.90;;;;;;4992433;28;20076;-78
2021/11/10 12:28:57;;;;;;;20.77;17.48;;;8.90;99.90;;;;;;4999362;28;20497;-78
2021/11/10 12:31:34;;;;;;;23.90;16.85;;;8.70;99.90;;;;;;4992631;28;20070;-79
2021/11/10 12:34:13;;;;;;;25.58;17.35;;;8.50;99.90;;;;;;4999573;28;20052;-79
2021/11/10 12:36:58;;;;;;;24.20;17.45;;;8.70;99.90;;;;;;4991380;28;20101;-79
2021/11/10 12:39:29;;;;;;;26.65;17.80;;;9.00;99.90;;;;;;4997219;28;20054;-79
2021/11/10 12:42:17;;;;;;;26.95;17.42;;;9.00;99.90;;;;;;4997402;28;20489;-79
2021/11/10 12:44:51;;;;;;;27.80;17.20;;;8.80;99.90;;;;;;4995044;28;20109;-78